sensor_id;sensor_type;location;lat;lon;timestamp;P1;durP1;ratioP1;P2;durP2;ratioP2
77326;SDS011;66399;52.322;20.980;2023-02-01T00:03:30;5.80;;;2.50;;
77326;SDS011;66399;52.322;20.980;2023-02-01T00:07:36;4.90;;;2.20;;
77326;SDS011;66399;52.322;20.980;2023-02-01T00:11:41;3.70;;;2.20;;
77326;SDS011;66399;52.322;20.980;2023-02-01T00:15:46;5.00;;;2.80;;
77326;SDS011;66399;52.322;20.980;2023-02-01T00:19:51;3.00;;;1.40;;
77326;SDS011;66399;52.322;20.980;2023-02-01T00:23:56;4.20;;;2.20;;
77326;SDS011;66399;52.322;20.980;2023-02-01T00:28:02;4.30;;;2.20;;
77326;SDS011;66399;52.322;20.980;2023-02-01T00:32:07;4.00;;;1.40;;
77326;SDS011;66399;52.322;20.980;2023-02-01T00:36:12;4.00;;;1.90;;
77326;SDS011;66399;52.322;20.980;2023-02-01T00:40:18;2.90;;;1.50;;
77326;SDS011;66399;52.322;20.980;2023-02-01T00:44:23;4.30;;;1.80;;
77326;SDS011;66399;52.322;20.980;2023-02-01T00:48:29;2.80;;;1.50;;
77326;SDS011;66399;52.322;20.980;2023-02-01T00:52:34;3.60;;;1.60;;
77326;SDS011;66399;52.322;20.980;2023-02-01T00:56:40;2.10;;;1.10;;
77326;SDS011;66399;52.322;20.980;2023-02-01T01:00:45;4.00;;;1.30;;
77326;SDS011;66399;52.322;20.980;2023-02-01T01:04:53;3.40;;;1.10;;
77326;SDS011;66399;52.322;20.980;2023-02-01T01:08:59;2.40;;;0.80;;
77326;SDS011;66399;52.322;20.980;2023-02-01T01:13:04;1.90;;;0.60;;
77326;SDS011;66399;52.322;20.980;2023-02-01T01:17:10;3.10;;;1.10;;
77326;SDS011;66399;52.322;20.980;2023-02-01T01:21:16;3.00;;;1.20;;
77326;SDS011;66399;52.322;20.980;2023-02-01T01:25:21;3.20;;;1.10;;
77326;SDS011;66399;52.322;20.980;2023-02-01T01:29:26;6.20;;;1.30;;
77326;SDS011;66399;52.322;20.980;2023-02-01T01:33:32;3.00;;;1.20;;
77326;SDS011;66399;52.322;20.980;2023-02-01T01:37:37;4.50;;;1.30;;
77326;SDS011;66399;52.322;20.980;2023-02-01T01:41:43;1.00;;;0.60;;
77326;SDS011;66399;52.322;20.980;2023-02-01T01:45:48;1.80;;;0.80;;
77326;SDS011;66399;52.322;20.980;2023-02-01T01:49:54;2.20;;;0.70;;
77326;SDS011;66399;52.322;20.980;2023-02-01T01:54:01;1.10;;;0.60;;
77326;SDS011;66399;52.322;20.980;2023-02-01T01:58:09;3.00;;;0.40;;
77326;SDS011;66399;52.322;20.980;2023-02-01T02:02:15;5.10;;;0.90;;
77326;SDS011;66399;52.322;20.980;2023-02-01T02:06:26;2.90;;;0.80;;
77326;SDS011;66399;52.322;20.980;2023-02-01T02:10:33;3.70;;;1.10;;
77326;SDS011;66399;52.322;20.980;2023-02-01T02:14:55;1.50;;;0.50;;
77326;SDS011;66399;52.322;20.980;2023-02-01T02:19:10;4.40;;;1.20;;
77326;SDS011;66399;52.322;20.980;2023-02-01T02:27:40;1.80;;;0.90;;
77326;SDS011;66399;52.322;20.980;2023-02-01T02:31:57;4.30;;;1.50;;
77326;SDS011;66399;52.322;20.980;2023-02-01T02:36:04;3.10;;;1.00;;
77326;SDS011;66399;52.322;20.980;2023-02-01T02:40:14;4.60;;;1.30;;
77326;SDS011;66399;52.322;20.980;2023-02-01T02:44:21;4.80;;;1.40;;
77326;SDS011;66399;52.322;20.980;2023-02-01T02:48:46;5.00;;;1.40;;
77326;SDS011;66399;52.322;20.980;2023-02-01T02:52:55;4.70;;;1.20;;
77326;SDS011;66399;52.322;20.980;2023-02-01T02:57:20;5.00;;;1.00;;
77326;SDS011;66399;52.322;20.980;2023-02-01T03:01:44;3.90;;;1.10;;
77326;SDS011;66399;52.322;20.980;2023-02-01T03:06:09;2.80;;;1.10;;
77326;SDS011;66399;52.322;20.980;2023-02-01T03:10:18;2.50;;;1.10;;
77326;SDS011;66399;52.322;20.980;2023-02-01T03:14:27;5.60;;;1.10;;
77326;SDS011;66399;52.322;20.980;2023-02-01T03:18:35;2.40;;;0.90;;
77326;SDS011;66399;52.322;20.980;2023-02-01T03:22:42;5.00;;;1.10;;
77326;SDS011;66399;52.322;20.980;2023-02-01T03:26:50;4.20;;;1.10;;
77326;SDS011;66399;52.322;20.980;2023-02-01T03:30:57;2.00;;;1.00;;
77326;SDS011;66399;52.322;20.980;2023-02-01T03:35:03;3.30;;;0.90;;
77326;SDS011;66399;52.322;20.980;2023-02-01T03:39:09;2.60;;;1.00;;
77326;SDS011;66399;52.322;20.980;2023-02-01T03:43:18;4.40;;;1.10;;
77326;SDS011;66399;52.322;20.980;2023-02-01T03:47:24;1.90;;;0.70;;
77326;SDS011;66399;52.322;20.980;2023-02-01T03:51:30;4.30;;;1.20;;
77326;SDS011;66399;52.322;20.980;2023-02-01T03:55:36;6.10;;;1.20;;
77326;SDS011;66399;52.322;20.980;2023-02-01T03:59:44;5.20;;;1.30;;
77326;SDS011;66399;52.322;20.980;2023-02-01T04:03:50;6.10;;;1.30;;
77326;SDS011;66399;52.322;20.980;2023-02-01T04:07:55;3.50;;;1.10;;
77326;SDS011;66399;52.322;20.980;2023-02-01T04:12:01;4.00;;;1.20;;
77326;SDS011;66399;52.322;20.980;2023-02-01T04:16:06;3.70;;;1.40;;
77326;SDS011;66399;52.322;20.980;2023-02-01T04:20:11;4.40;;;1.10;;
77326;SDS011;66399;52.322;20.980;2023-02-01T04:24:17;5.60;;;1.50;;
77326;SDS011;66399;52.322;20.980;2023-02-01T04:28:22;3.40;;;1.20;;
77326;SDS011;66399;52.322;20.980;2023-02-01T04:32:27;5.00;;;1.20;;
77326;SDS011;66399;52.322;20.980;2023-02-01T04:36:32;4.30;;;1.30;;
77326;SDS011;66399;52.322;20.980;2023-02-01T04:40:38;2.50;;;1.10;;
77326;SDS011;66399;52.322;20.980;2023-02-01T04:44:43;5.80;;;1.40;;
77326;SDS011;66399;52.322;20.980;2023-02-01T04:48:48;3.90;;;0.90;;
77326;SDS011;66399;52.322;20.980;2023-02-01T04:52:53;5.30;;;1.30;;
77326;SDS011;66399;52.322;20.980;2023-02-01T04:56:59;3.20;;;1.00;;
77326;SDS011;66399;52.322;20.980;2023-02-01T05:01:04;3.60;;;1.00;;
77326;SDS011;66399;52.322;20.980;2023-02-01T05:05:10;4.60;;;1.10;;
77326;SDS011;66399;52.322;20.980;2023-02-01T05:09:15;6.10;;;1.70;;
77326;SDS011;66399;52.322;20.980;2023-02-01T05:13:20;2.90;;;1.10;;
77326;SDS011;66399;52.322;20.980;2023-02-01T05:17:43;3.00;;;1.00;;
77326;SDS011;66399;52.322;20.980;2023-02-01T05:21:49;8.30;;;1.70;;
77326;SDS011;66399;52.322;20.980;2023-02-01T05:25:57;6.10;;;1.40;;
77326;SDS011;66399;52.322;20.980;2023-02-01T05:30:03;5.00;;;1.30;;
77326;SDS011;66399;52.322;20.980;2023-02-01T05:34:08;6.20;;;2.00;;
77326;SDS011;66399;52.322;20.980;2023-02-01T05:38:13;4.00;;;1.10;;
77326;SDS011;66399;52.322;20.980;2023-02-01T05:42:19;4.50;;;1.80;;
77326;SDS011;66399;52.322;20.980;2023-02-01T05:46:24;6.80;;;1.40;;
77326;SDS011;66399;52.322;20.980;2023-02-01T05:50:29;6.50;;;1.10;;
77326;SDS011;66399;52.322;20.980;2023-02-01T05:54:35;4.80;;;1.20;;
77326;SDS011;66399;52.322;20.980;2023-02-01T05:58:40;4.50;;;0.90;;
77326;SDS011;66399;52.322;20.980;2023-02-01T06:02:45;4.90;;;1.30;;
77326;SDS011;66399;52.322;20.980;2023-02-01T06:06:50;3.20;;;0.80;;
77326;SDS011;66399;52.322;20.980;2023-02-01T06:10:59;2.90;;;1.00;;
77326;SDS011;66399;52.322;20.980;2023-02-01T06:15:06;6.30;;;1.40;;
77326;SDS011;66399;52.322;20.980;2023-02-01T06:19:11;3.40;;;1.10;;
77326;SDS011;66399;52.322;20.980;2023-02-01T06:23:16;6.10;;;1.50;;
77326;SDS011;66399;52.322;20.980;2023-02-01T06:27:21;8.30;;;1.60;;
77326;SDS011;66399;52.322;20.980;2023-02-01T06:31:27;7.40;;;1.90;;
77326;SDS011;66399;52.322;20.980;2023-02-01T06:35:32;5.50;;;1.30;;
77326;SDS011;66399;52.322;20.980;2023-02-01T06:39:37;4.40;;;1.30;;
77326;SDS011;66399;52.322;20.980;2023-02-01T06:43:43;2.40;;;1.00;;
77326;SDS011;66399;52.322;20.980;2023-02-01T06:47:49;5.90;;;1.50;;
77326;SDS011;66399;52.322;20.980;2023-02-01T06:51:54;4.80;;;1.10;;
77326;SDS011;66399;52.322;20.980;2023-02-01T06:56:00;7.60;;;1.80;;
77326;SDS011;66399;52.322;20.980;2023-02-01T07:00:07;1.90;;;0.90;;
77326;SDS011;66399;52.322;20.980;2023-02-01T07:04:12;3.90;;;1.20;;
77326;SDS011;66399;52.322;20.980;2023-02-01T07:08:17;3.20;;;1.00;;
77326;SDS011;66399;52.322;20.980;2023-02-01T07:12:23;2.60;;;1.00;;
77326;SDS011;66399;52.322;20.980;2023-02-01T07:16:28;4.60;;;1.20;;
77326;SDS011;66399;52.322;20.980;2023-02-01T07:20:35;4.00;;;1.30;;
77326;SDS011;66399;52.322;20.980;2023-02-01T07:24:40;6.50;;;1.30;;
77326;SDS011;66399;52.322;20.980;2023-02-01T07:28:45;2.40;;;1.00;;
77326;SDS011;66399;52.322;20.980;2023-02-01T07:32:51;4.60;;;1.30;;
77326;SDS011;66399;52.322;20.980;2023-02-01T07:36:56;5.80;;;1.70;;
77326;SDS011;66399;52.322;20.980;2023-02-01T07:41:02;2.70;;;0.80;;
77326;SDS011;66399;52.322;20.980;2023-02-01T07:45:08;8.20;;;1.40;;
77326;SDS011;66399;52.322;20.980;2023-02-01T07:49:24;4.10;;;1.20;;
77326;SDS011;66399;52.322;20.980;2023-02-01T07:53:30;5.30;;;1.10;;
77326;SDS011;66399;52.322;20.980;2023-02-01T08:01:39;5.00;;;1.50;;
77326;SDS011;66399;52.322;20.980;2023-02-01T08:05:44;4.50;;;1.50;;
77326;SDS011;66399;52.322;20.980;2023-02-01T08:09:49;5.40;;;1.60;;
77326;SDS011;66399;52.322;20.980;2023-02-01T08:13:54;6.60;;;1.60;;
77326;SDS011;66399;52.322;20.980;2023-02-01T08:18:00;2.80;;;1.40;;
77326;SDS011;66399;52.322;20.980;2023-02-01T08:22:06;7.10;;;1.30;;
77326;SDS011;66399;52.322;20.980;2023-02-01T08:26:12;3.50;;;1.10;;
77326;SDS011;66399;52.322;20.980;2023-02-01T08:30:18;6.10;;;1.70;;
77326;SDS011;66399;52.322;20.980;2023-02-01T08:34:24;5.50;;;1.20;;
77326;SDS011;66399;52.322;20.980;2023-02-01T08:38:30;2.70;;;0.90;;
77326;SDS011;66399;52.322;20.980;2023-02-01T08:46:47;4.40;;;1.30;;
77326;SDS011;66399;52.322;20.980;2023-02-01T08:50:52;5.10;;;1.80;;
77326;SDS011;66399;52.322;20.980;2023-02-01T09:08:09;3.10;;;1.10;;
77326;SDS011;66399;52.322;20.980;2023-02-01T09:12:16;6.50;;;1.70;;
77326;SDS011;66399;52.322;20.980;2023-02-01T09:21:03;7.80;;;1.60;;
77326;SDS011;66399;52.322;20.980;2023-02-01T09:25:08;4.90;;;1.50;;
77326;SDS011;66399;52.322;20.980;2023-02-01T09:29:14;4.70;;;1.50;;
77326;SDS011;66399;52.322;20.980;2023-02-01T09:33:26;6.50;;;1.50;;
77326;SDS011;66399;52.322;20.980;2023-02-01T09:37:31;4.90;;;1.30;;
77326;SDS011;66399;52.322;20.980;2023-02-01T09:41:39;11.20;;;2.20;;
77326;SDS011;66399;52.322;20.980;2023-02-01T09:45:54;5.00;;;1.50;;
77326;SDS011;66399;52.322;20.980;2023-02-01T09:50:02;4.00;;;0.90;;
77326;SDS011;66399;52.322;20.980;2023-02-01T09:58:59;6.20;;;1.40;;
77326;SDS011;66399;52.322;20.980;2023-02-01T10:07:58;5.00;;;1.60;;
77326;SDS011;66399;52.322;20.980;2023-02-01T10:16:55;5.00;;;1.40;;
77326;SDS011;66399;52.322;20.980;2023-02-01T10:21:04;4.40;;;1.40;;
77326;SDS011;66399;52.322;20.980;2023-02-01T10:25:20;5.00;;;1.50;;
77326;SDS011;66399;52.322;20.980;2023-02-01T10:34:17;7.70;;;1.80;;
77326;SDS011;66399;52.322;20.980;2023-02-01T10:38:25;5.10;;;1.70;;
77326;SDS011;66399;52.322;20.980;2023-02-01T10:42:45;3.70;;;1.20;;
77326;SDS011;66399;52.322;20.980;2023-02-01T10:46:51;6.80;;;1.40;;
77326;SDS011;66399;52.322;20.980;2023-02-01T10:59:44;3.00;;;1.30;;
77326;SDS011;66399;52.322;20.980;2023-02-01T11:03:53;4.60;;;1.50;;
77326;SDS011;66399;52.322;20.980;2023-02-01T11:08:04;7.30;;;1.80;;
77326;SDS011;66399;52.322;20.980;2023-02-01T11:17:03;6.30;;;1.70;;
77326;SDS011;66399;52.322;20.980;2023-02-01T11:21:15;6.60;;;2.20;;
77326;SDS011;66399;52.322;20.980;2023-02-01T11:30:13;5.30;;;1.80;;
77326;SDS011;66399;52.322;20.980;2023-02-01T11:34:34;5.90;;;1.60;;
77326;SDS011;66399;52.322;20.980;2023-02-01T11:38:41;4.70;;;1.50;;
77326;SDS011;66399;52.322;20.980;2023-02-01T11:56:07;4.70;;;1.30;;
77326;SDS011;66399;52.322;20.980;2023-02-01T12:00:39;4.80;;;1.60;;
77326;SDS011;66399;52.322;20.980;2023-02-01T12:14:08;5.90;;;1.70;;
77326;SDS011;66399;52.322;20.980;2023-02-01T12:18:32;6.50;;;1.70;;
77326;SDS011;66399;52.322;20.980;2023-02-01T12:22:44;5.80;;;1.60;;
77326;SDS011;66399;52.322;20.980;2023-02-01T12:27:00;3.70;;;1.30;;
77326;SDS011;66399;52.322;20.980;2023-02-01T12:35:30;7.60;;;1.80;;
77326;SDS011;66399;52.322;20.980;2023-02-01T12:39:56;5.20;;;1.70;;
77326;SDS011;66399;52.322;20.980;2023-02-01T12:44:10;10.70;;;2.50;;
77326;SDS011;66399;52.322;20.980;2023-02-01T12:48:23;5.30;;;1.70;;
77326;SDS011;66399;52.322;20.980;2023-02-01T12:56:48;5.70;;;2.30;;
77326;SDS011;66399;52.322;20.980;2023-02-01T13:00:59;4.40;;;1.40;;
77326;SDS011;66399;52.322;20.980;2023-02-01T13:05:16;3.30;;;1.30;;
77326;SDS011;66399;52.322;20.980;2023-02-01T13:09:23;5.60;;;1.70;;
77326;SDS011;66399;52.322;20.980;2023-02-01T13:13:46;6.10;;;1.60;;
77326;SDS011;66399;52.322;20.980;2023-02-01T13:17:53;5.40;;;2.00;;
77326;SDS011;66399;52.322;20.980;2023-02-01T13:35:17;4.40;;;1.20;;
77326;SDS011;66399;52.322;20.980;2023-02-01T13:39:50;5.70;;;1.80;;
77326;SDS011;66399;52.322;20.980;2023-02-01T13:44:15;8.10;;;2.00;;
77326;SDS011;66399;52.322;20.980;2023-02-01T13:48:24;4.20;;;1.20;;
77326;SDS011;66399;52.322;20.980;2023-02-01T13:52:36;4.20;;;1.40;;
77326;SDS011;66399;52.322;20.980;2023-02-01T13:56:42;4.10;;;1.20;;
77326;SDS011;66399;52.322;20.980;2023-02-01T14:14:40;4.20;;;1.50;;
77326;SDS011;66399;52.322;20.980;2023-02-01T14:19:01;5.70;;;1.40;;
77326;SDS011;66399;52.322;20.980;2023-02-01T14:23:14;2.70;;;1.30;;
77326;SDS011;66399;52.322;20.980;2023-02-01T14:49:49;5.00;;;2.00;;
77326;SDS011;66399;52.322;20.980;2023-02-01T14:53:55;8.50;;;2.20;;
77326;SDS011;66399;52.322;20.980;2023-02-01T14:58:05;3.20;;;1.60;;
77326;SDS011;66399;52.322;20.980;2023-02-01T15:02:16;2.00;;;0.90;;
77326;SDS011;66399;52.322;20.980;2023-02-01T15:06:27;5.60;;;1.60;;
77326;SDS011;66399;52.322;20.980;2023-02-01T15:10:39;3.50;;;1.50;;
77326;SDS011;66399;52.322;20.980;2023-02-01T15:14:45;3.60;;;1.20;;
77326;SDS011;66399;52.322;20.980;2023-02-01T15:23:35;4.30;;;1.20;;
77326;SDS011;66399;52.322;20.980;2023-02-01T15:27:41;2.40;;;1.10;;
77326;SDS011;66399;52.322;20.980;2023-02-01T15:31:48;2.60;;;1.40;;
77326;SDS011;66399;52.322;20.980;2023-02-01T15:35:54;1.10;;;0.60;;
77326;SDS011;66399;52.322;20.980;2023-02-01T15:40:04;3.40;;;1.40;;
77326;SDS011;66399;52.322;20.980;2023-02-01T15:44:14;2.10;;;1.00;;
77326;SDS011;66399;52.322;20.980;2023-02-01T15:48:21;2.70;;;1.40;;
77326;SDS011;66399;52.322;20.980;2023-02-01T15:52:30;4.90;;;1.40;;
77326;SDS011;66399;52.322;20.980;2023-02-01T15:56:38;3.80;;;1.60;;
77326;SDS011;66399;52.322;20.980;2023-02-01T16:00:45;2.80;;;1.40;;
77326;SDS011;66399;52.322;20.980;2023-02-01T16:04:51;3.90;;;1.40;;
77326;SDS011;66399;52.322;20.980;2023-02-01T16:09:01;2.90;;;1.10;;
77326;SDS011;66399;52.322;20.980;2023-02-01T16:13:07;5.80;;;2.00;;
77326;SDS011;66399;52.322;20.980;2023-02-01T16:17:13;5.20;;;1.80;;
77326;SDS011;66399;52.322;20.980;2023-02-01T16:25:22;4.30;;;1.90;;
77326;SDS011;66399;52.322;20.980;2023-02-01T16:29:28;3.50;;;1.90;;
77326;SDS011;66399;52.322;20.980;2023-02-01T16:33:33;5.10;;;2.00;;
77326;SDS011;66399;52.322;20.980;2023-02-01T16:41:43;6.10;;;2.40;;
77326;SDS011;66399;52.322;20.980;2023-02-01T16:45:49;4.90;;;1.60;;
77326;SDS011;66399;52.322;20.980;2023-02-01T16:49:55;3.40;;;1.70;;
77326;SDS011;66399;52.322;20.980;2023-02-01T16:54:00;4.50;;;1.90;;
77326;SDS011;66399;52.322;20.980;2023-02-01T16:58:08;5.60;;;2.10;;
77326;SDS011;66399;52.322;20.980;2023-02-01T17:02:17;4.30;;;2.30;;
77326;SDS011;66399;52.322;20.980;2023-02-01T17:06:25;2.80;;;1.60;;
77326;SDS011;66399;52.322;20.980;2023-02-01T17:10:31;4.90;;;2.20;;
77326;SDS011;66399;52.322;20.980;2023-02-01T17:14:38;5.60;;;2.30;;
77326;SDS011;66399;52.322;20.980;2023-02-01T17:18:46;7.60;;;2.10;;
77326;SDS011;66399;52.322;20.980;2023-02-01T17:22:52;6.30;;;2.30;;
77326;SDS011;66399;52.322;20.980;2023-02-01T17:26:58;4.90;;;2.10;;
77326;SDS011;66399;52.322;20.980;2023-02-01T17:31:03;5.60;;;2.00;;
77326;SDS011;66399;52.322;20.980;2023-02-01T17:35:13;6.80;;;2.20;;
77326;SDS011;66399;52.322;20.980;2023-02-01T17:39:20;6.40;;;2.40;;
77326;SDS011;66399;52.322;20.980;2023-02-01T17:43:43;5.50;;;2.10;;
77326;SDS011;66399;52.322;20.980;2023-02-01T17:47:49;3.40;;;1.60;;
77326;SDS011;66399;52.322;20.980;2023-02-01T17:51:54;7.10;;;2.30;;
77326;SDS011;66399;52.322;20.980;2023-02-01T17:56:01;6.50;;;2.30;;
77326;SDS011;66399;52.322;20.980;2023-02-01T18:00:08;6.00;;;2.20;;
77326;SDS011;66399;52.322;20.980;2023-02-01T18:04:13;5.60;;;2.10;;
77326;SDS011;66399;52.322;20.980;2023-02-01T18:08:22;5.10;;;2.00;;
77326;SDS011;66399;52.322;20.980;2023-02-01T18:12:27;6.40;;;2.80;;
77326;SDS011;66399;52.322;20.980;2023-02-01T18:16:34;6.40;;;1.90;;
77326;SDS011;66399;52.322;20.980;2023-02-01T18:20:40;6.70;;;1.40;;
77326;SDS011;66399;52.322;20.980;2023-02-01T18:24:47;5.70;;;2.00;;
77326;SDS011;66399;52.322;20.980;2023-02-01T18:32:57;5.60;;;2.30;;
77326;SDS011;66399;52.322;20.980;2023-02-01T18:37:03;4.50;;;1.70;;
77326;SDS011;66399;52.322;20.980;2023-02-01T18:41:09;2.00;;;1.20;;
77326;SDS011;66399;52.322;20.980;2023-02-01T18:45:21;3.20;;;1.40;;
77326;SDS011;66399;52.322;20.980;2023-02-01T18:49:27;8.20;;;2.70;;
77326;SDS011;66399;52.322;20.980;2023-02-01T18:53:34;6.70;;;2.20;;
77326;SDS011;66399;52.322;20.980;2023-02-01T18:57:40;6.50;;;2.40;;
77326;SDS011;66399;52.322;20.980;2023-02-01T19:05:50;5.40;;;2.00;;
77326;SDS011;66399;52.322;20.980;2023-02-01T19:09:55;6.50;;;1.80;;
77326;SDS011;66399;52.322;20.980;2023-02-01T19:14:01;5.20;;;2.00;;
77326;SDS011;66399;52.322;20.980;2023-02-01T19:18:06;9.80;;;2.60;;
77326;SDS011;66399;52.322;20.980;2023-02-01T19:22:12;4.50;;;2.00;;
77326;SDS011;66399;52.322;20.980;2023-02-01T19:26:18;6.20;;;2.30;;
77326;SDS011;66399;52.322;20.980;2023-02-01T19:30:23;5.50;;;2.30;;
77326;SDS011;66399;52.322;20.980;2023-02-01T19:34:29;9.70;;;2.10;;
77326;SDS011;66399;52.322;20.980;2023-02-01T19:42:38;4.60;;;1.90;;
77326;SDS011;66399;52.322;20.980;2023-02-01T19:46:44;6.20;;;1.90;;
77326;SDS011;66399;52.322;20.980;2023-02-01T19:50:49;5.90;;;1.90;;
77326;SDS011;66399;52.322;20.980;2023-02-01T19:54:54;7.10;;;2.00;;
77326;SDS011;66399;52.322;20.980;2023-02-01T19:59:00;4.50;;;1.80;;
77326;SDS011;66399;52.322;20.980;2023-02-01T20:03:05;7.10;;;2.60;;
77326;SDS011;66399;52.322;20.980;2023-02-01T20:07:11;4.30;;;2.10;;
77326;SDS011;66399;52.322;20.980;2023-02-01T20:11:16;6.20;;;1.90;;
77326;SDS011;66399;52.322;20.980;2023-02-01T20:15:22;7.60;;;2.20;;
77326;SDS011;66399;52.322;20.980;2023-02-01T20:19:30;5.20;;;1.90;;
77326;SDS011;66399;52.322;20.980;2023-02-01T20:23:36;8.70;;;2.30;;
77326;SDS011;66399;52.322;20.980;2023-02-01T20:27:41;5.90;;;2.20;;
77326;SDS011;66399;52.322;20.980;2023-02-01T20:31:46;5.70;;;1.90;;
77326;SDS011;66399;52.322;20.980;2023-02-01T20:35:52;8.60;;;2.50;;
77326;SDS011;66399;52.322;20.980;2023-02-01T20:39:58;11.40;;;2.80;;
77326;SDS011;66399;52.322;20.980;2023-02-01T20:44:03;7.80;;;2.50;;
77326;SDS011;66399;52.322;20.980;2023-02-01T20:48:09;5.50;;;2.30;;
77326;SDS011;66399;52.322;20.980;2023-02-01T20:52:15;2.50;;;1.10;;
77326;SDS011;66399;52.322;20.980;2023-02-01T20:56:20;6.60;;;2.10;;
77326;SDS011;66399;52.322;20.980;2023-02-01T21:00:26;8.20;;;2.80;;
77326;SDS011;66399;52.322;20.980;2023-02-01T21:04:34;9.90;;;2.90;;
77326;SDS011;66399;52.322;20.980;2023-02-01T21:12:44;8.40;;;3.40;;
77326;SDS011;66399;52.322;20.980;2023-02-01T21:16:50;6.30;;;2.60;;
77326;SDS011;66399;52.322;20.980;2023-02-01T21:20:56;5.20;;;1.80;;
77326;SDS011;66399;52.322;20.980;2023-02-01T21:25:02;8.90;;;3.00;;
77326;SDS011;66399;52.322;20.980;2023-02-01T21:29:07;9.00;;;2.70;;
77326;SDS011;66399;52.322;20.980;2023-02-01T21:33:13;8.60;;;3.20;;
77326;SDS011;66399;52.322;20.980;2023-02-01T21:37:18;6.40;;;2.40;;
77326;SDS011;66399;52.322;20.980;2023-02-01T21:41:29;7.90;;;3.10;;
77326;SDS011;66399;52.322;20.980;2023-02-01T21:45:52;10.00;;;3.00;;
77326;SDS011;66399;52.322;20.980;2023-02-01T21:49:57;7.50;;;2.60;;
77326;SDS011;66399;52.322;20.980;2023-02-01T21:54:03;8.10;;;2.40;;
77326;SDS011;66399;52.322;20.980;2023-02-01T21:58:09;6.80;;;2.80;;
77326;SDS011;66399;52.322;20.980;2023-02-01T22:02:15;12.10;;;3.20;;
77326;SDS011;66399;52.322;20.980;2023-02-01T22:06:24;7.00;;;2.50;;
77326;SDS011;66399;52.322;20.980;2023-02-01T22:10:30;10.00;;;2.80;;
77326;SDS011;66399;52.322;20.980;2023-02-01T22:14:35;6.90;;;2.60;;
77326;SDS011;66399;52.322;20.980;2023-02-01T22:18:41;9.70;;;2.60;;
77326;SDS011;66399;52.322;20.980;2023-02-01T22:22:47;8.20;;;2.50;;
77326;SDS011;66399;52.322;20.980;2023-02-01T22:26:53;10.40;;;3.40;;
77326;SDS011;66399;52.322;20.980;2023-02-01T22:31:16;5.20;;;2.20;;
77326;SDS011;66399;52.322;20.980;2023-02-01T22:35:21;7.70;;;2.80;;
77326;SDS011;66399;52.322;20.980;2023-02-01T22:39:27;3.40;;;1.60;;
77326;SDS011;66399;52.322;20.980;2023-02-01T22:43:34;6.80;;;2.90;;
77326;SDS011;66399;52.322;20.980;2023-02-01T22:47:39;7.90;;;3.20;;
77326;SDS011;66399;52.322;20.980;2023-02-01T22:51:45;7.20;;;2.80;;
77326;SDS011;66399;52.322;20.980;2023-02-01T22:55:55;8.00;;;3.10;;
77326;SDS011;66399;52.322;20.980;2023-02-01T23:00:04;9.70;;;3.30;;
77326;SDS011;66399;52.322;20.980;2023-02-01T23:04:11;6.90;;;2.60;;
77326;SDS011;66399;52.322;20.980;2023-02-01T23:08:16;5.90;;;2.70;;
77326;SDS011;66399;52.322;20.980;2023-02-01T23:12:22;5.20;;;2.80;;
77326;SDS011;66399;52.322;20.980;2023-02-01T23:16:27;7.20;;;2.80;;
77326;SDS011;66399;52.322;20.980;2023-02-01T23:20:32;7.80;;;2.90;;
77326;SDS011;66399;52.322;20.980;2023-02-01T23:24:38;6.10;;;2.90;;
77326;SDS011;66399;52.322;20.980;2023-02-01T23:28:43;6.70;;;2.70;;
77326;SDS011;66399;52.322;20.980;2023-02-01T23:32:49;5.90;;;2.80;;
77326;SDS011;66399;52.322;20.980;2023-02-01T23:36:54;5.40;;;2.50;;
77326;SDS011;66399;52.322;20.980;2023-02-01T23:41:01;5.30;;;2.50;;
77326;SDS011;66399;52.322;20.980;2023-02-01T23:45:08;4.70;;;2.50;;
77326;SDS011;66399;52.322;20.980;2023-02-01T23:49:14;5.70;;;2.40;;
77326;SDS011;66399;52.322;20.980;2023-02-01T23:53:20;5.90;;;2.40;;
77326;SDS011;66399;52.322;20.980;2023-02-01T23:57:25;5.70;;;2.80;;
